sensor_id;sensor_type;location;lat;lon;timestamp;pressure;altitude;pressure_sealevel;temperature;humidity
36932;BME280;22847;42.654;23.370;2023-12-22T00:00:35;93175.34;;;4.79;66.41
36932;BME280;22847;42.654;23.370;2023-12-22T00:03:00;93186.06;;;4.84;66.67
36932;BME280;22847;42.654;23.370;2023-12-22T00:05:26;93043.63;;;4.00;66.75
36932;BME280;22847;42.654;23.370;2023-12-22T00:07:51;93185.75;;;4.87;67.04
36932;BME280;22847;42.654;23.370;2023-12-22T00:10:17;93174.66;;;4.77;67.09
36932;BME280;22847;42.654;23.370;2023-12-22T00:12:42;93053.19;;;3.90;67.17
36932;BME280;22847;42.654;23.370;2023-12-22T00:15:08;93144.22;;;4.45;67.37
36932;BME280;22847;42.654;23.370;2023-12-22T00:17:33;93170.31;;;4.60;67.56
36932;BME280;22847;42.654;23.370;2023-12-22T00:19:59;93036.63;;;3.66;67.62
36932;BME280;22847;42.654;23.370;2023-12-22T00:22:28;93171.19;;;4.24;68.91
36932;BME280;22847;42.654;23.370;2023-12-22T00:24:54;93048.31;;;3.60;68.99
36932;BME280;22847;42.654;23.370;2023-12-22T00:27:19;93160.00;;;4.33;68.98
36932;BME280;22847;42.654;23.370;2023-12-22T00:29:44;93168.94;;;4.11;69.61
36932;BME280;22847;42.654;23.370;2023-12-22T00:32:10;93122.41;;;4.13;69.25
36932;BME280;22847;42.654;23.370;2023-12-22T00:34:36;93155.16;;;4.30;69.19
36932;BME280;22847;42.654;23.370;2023-12-22T00:37:01;93133.69;;;4.29;69.18
36932;BME280;22847;42.654;23.370;2023-12-22T00:39:27;93133.06;;;4.27;69.49
36932;BME280;22847;42.654;23.370;2023-12-22T00:41:52;92999.47;;;3.04;70.36
36932;BME280;22847;42.654;23.370;2023-12-22T00:44:18;93106.78;;;3.87;70.63
36932;BME280;22847;42.654;23.370;2023-12-22T00:46:44;93124.47;;;4.09;70.53
36932;BME280;22847;42.654;23.370;2023-12-22T00:49:09;93087.22;;;3.94;70.03
36932;BME280;22847;42.654;23.370;2023-12-22T00:51:34;93113.94;;;4.20;69.70
36932;BME280;22847;42.654;23.370;2023-12-22T00:54:00;93114.72;;;4.48;69.25
36932;BME280;22847;42.654;23.370;2023-12-22T00:56:25;93137.41;;;4.44;69.16
36932;BME280;22847;42.654;23.370;2023-12-22T00:58:51;92999.09;;;3.81;68.71
36932;BME280;22847;42.654;23.370;2023-12-22T01:01:17;93100.03;;;4.31;69.64
36932;BME280;22847;42.654;23.370;2023-12-22T01:03:42;93047.31;;;4.16;68.89
36932;BME280;22847;42.654;23.370;2023-12-22T01:06:07;93000.25;;;4.14;68.49
36932;BME280;22847;42.654;23.370;2023-12-22T01:08:33;93064.34;;;4.44;68.92
36932;BME280;22847;42.654;23.370;2023-12-22T01:10:58;93111.47;;;4.81;68.63
36932;BME280;22847;42.654;23.370;2023-12-22T01:13:24;93126.28;;;4.97;68.08
36932;BME280;22847;42.654;23.370;2023-12-22T01:15:49;93111.88;;;5.12;67.44
36932;BME280;22847;42.654;23.370;2023-12-22T01:18:15;93122.41;;;5.19;66.89
36932;BME280;22847;42.654;23.370;2023-12-22T01:20:41;93111.06;;;5.12;66.77
36932;BME280;22847;42.654;23.370;2023-12-22T01:23:06;93108.75;;;5.26;66.55
36932;BME280;22847;42.654;23.370;2023-12-22T01:25:31;92982.16;;;4.49;66.36
36932;BME280;22847;42.654;23.370;2023-12-22T01:27:57;93105.41;;;5.34;66.30
36932;BME280;22847;42.654;23.370;2023-12-22T01:30:22;93112.50;;;5.32;66.51
36932;BME280;22847;42.654;23.370;2023-12-22T01:32:48;92972.56;;;4.59;66.70
36932;BME280;22847;42.654;23.370;2023-12-22T01:35:13;93085.47;;;5.01;66.60
36932;BME280;22847;42.654;23.370;2023-12-22T01:37:39;93110.06;;;5.30;66.50
36932;BME280;22847;42.654;23.370;2023-12-22T01:40:05;93091.91;;;5.22;66.71
36932;BME280;22847;42.654;23.370;2023-12-22T01:42:31;93098.13;;;5.29;66.45
36932;BME280;22847;42.654;23.370;2023-12-22T01:44:57;93086.38;;;5.35;66.23
36932;BME280;22847;42.654;23.370;2023-12-22T01:47:22;93083.38;;;5.22;66.22
36932;BME280;22847;42.654;23.370;2023-12-22T01:49:48;92932.94;;;4.25;66.27
36932;BME280;22847;42.654;23.370;2023-12-22T01:52:15;93064.31;;;5.23;66.19
36932;BME280;22847;42.654;23.370;2023-12-22T01:54:42;93068.38;;;5.25;66.13
36932;BME280;22847;42.654;23.370;2023-12-22T01:57:08;93035.00;;;5.06;66.00
36932;BME280;22847;42.654;23.370;2023-12-22T01:59:35;92927.91;;;4.41;66.01
36932;BME280;22847;42.654;23.370;2023-12-22T02:02:03;92920.47;;;4.38;66.17
36932;BME280;22847;42.654;23.370;2023-12-22T02:04:30;93054.78;;;5.23;66.24
36932;BME280;22847;42.654;23.370;2023-12-22T02:07:01;92940.16;;;4.65;65.78
36932;BME280;22847;42.654;23.370;2023-12-22T02:09:27;93065.53;;;5.36;65.73
36932;BME280;22847;42.654;23.370;2023-12-22T02:11:52;93045.72;;;5.19;66.30
36932;BME280;22847;42.654;23.370;2023-12-22T02:14:19;92949.94;;;4.53;66.19
36932;BME280;22847;42.654;23.370;2023-12-22T02:19:48;93074.81;;;5.47;66.08
36932;BME280;22847;42.654;23.370;2023-12-22T02:22:14;92979.34;;;4.86;66.31
36932;BME280;22847;42.654;23.370;2023-12-22T02:24:40;93049.56;;;5.41;66.16
36932;BME280;22847;42.654;23.370;2023-12-22T02:27:31;93065.75;;;5.43;66.20
36932;BME280;22847;42.654;23.370;2023-12-22T02:30:07;93048.00;;;5.48;66.12
36932;BME280;22847;42.654;23.370;2023-12-22T02:32:46;93051.78;;;5.36;66.38
36932;BME280;22847;42.654;23.370;2023-12-22T02:35:19;92977.88;;;4.83;66.86
36932;BME280;22847;42.654;23.370;2023-12-22T02:37:46;93017.47;;;5.18;66.40
36932;BME280;22847;42.654;23.370;2023-12-22T02:40:12;92958.03;;;4.84;66.30
36932;BME280;22847;42.654;23.370;2023-12-22T02:42:39;93048.63;;;5.50;66.49
36932;BME280;22847;42.654;23.370;2023-12-22T02:45:05;93037.28;;;5.35;66.43
36932;BME280;22847;42.654;23.370;2023-12-22T02:47:31;92916.47;;;4.69;66.26
36932;BME280;22847;42.654;23.370;2023-12-22T02:49:58;92910.94;;;4.64;66.12
36932;BME280;22847;42.654;23.370;2023-12-22T02:52:24;93042.16;;;5.46;66.33
36932;BME280;22847;42.654;23.370;2023-12-22T02:54:50;92936.09;;;4.88;66.19
36932;BME280;22847;42.654;23.370;2023-12-22T02:57:15;93026.06;;;5.60;65.81
36932;BME280;22847;42.654;23.370;2023-12-22T02:59:41;93015.41;;;5.63;65.70
36932;BME280;22847;42.654;23.370;2023-12-22T03:02:06;92938.03;;;5.20;65.65
36932;BME280;22847;42.654;23.370;2023-12-22T03:04:32;93042.75;;;5.66;65.68
36932;BME280;22847;42.654;23.370;2023-12-22T03:06:57;92879.88;;;4.74;65.66
36932;BME280;22847;42.654;23.370;2023-12-22T03:09:23;92996.31;;;5.48;66.06
36932;BME280;22847;42.654;23.370;2023-12-22T03:11:49;93009.97;;;5.66;65.69
36932;BME280;22847;42.654;23.370;2023-12-22T03:14:15;93019.47;;;5.58;66.41
36932;BME280;22847;42.654;23.370;2023-12-22T03:16:40;93001.75;;;5.45;67.10
36932;BME280;22847;42.654;23.370;2023-12-22T03:19:09;92999.25;;;5.27;67.39
36932;BME280;22847;42.654;23.370;2023-12-22T03:21:34;93029.44;;;5.53;67.60
36932;BME280;22847;42.654;23.370;2023-12-22T03:24:00;92841.94;;;4.15;67.97
36932;BME280;22847;42.654;23.370;2023-12-22T03:26:28;93018.78;;;5.22;68.27
36932;BME280;22847;42.654;23.370;2023-12-22T03:28:54;92913.75;;;4.45;68.51
36932;BME280;22847;42.654;23.370;2023-12-22T03:31:19;92942.16;;;4.27;69.37
36932;BME280;22847;42.654;23.370;2023-12-22T03:33:45;92910.59;;;4.33;69.31
36932;BME280;22847;42.654;23.370;2023-12-22T03:36:10;93050.06;;;5.19;68.81
36932;BME280;22847;42.654;23.370;2023-12-22T03:38:36;93017.78;;;5.15;68.46
36932;BME280;22847;42.654;23.370;2023-12-22T03:41:01;93044.94;;;5.27;68.05
36932;BME280;22847;42.654;23.370;2023-12-22T03:43:28;92980.56;;;5.00;68.08
36932;BME280;22847;42.654;23.370;2023-12-22T03:45:56;93025.38;;;5.16;68.46
36932;BME280;22847;42.654;23.370;2023-12-22T03:48:22;93008.91;;;5.17;68.17
36932;BME280;22847;42.654;23.370;2023-12-22T03:50:47;93015.84;;;5.17;68.55
36932;BME280;22847;42.654;23.370;2023-12-22T03:53:13;92885.97;;;4.39;68.41
36932;BME280;22847;42.654;23.370;2023-12-22T03:55:38;92969.44;;;4.99;68.36
36932;BME280;22847;42.654;23.370;2023-12-22T03:58:04;92907.72;;;4.62;68.01
36932;BME280;22847;42.654;23.370;2023-12-22T04:00:30;92877.00;;;4.51;67.96
36932;BME280;22847;42.654;23.370;2023-12-22T04:02:56;92902.09;;;4.67;67.85
36932;BME280;22847;42.654;23.370;2023-12-22T04:05:21;92943.59;;;4.99;68.04
36932;BME280;22847;42.654;23.370;2023-12-22T04:07:47;92914.00;;;4.85;68.11
36932;BME280;22847;42.654;23.370;2023-12-22T04:10:12;93016.06;;;5.57;67.68
36932;BME280;22847;42.654;23.370;2023-12-22T04:12:38;93026.44;;;5.65;67.36
36932;BME280;22847;42.654;23.370;2023-12-22T04:15:04;92976.56;;;5.39;67.31
36932;BME280;22847;42.654;23.370;2023-12-22T04:17:29;92966.84;;;5.33;67.35
36932;BME280;22847;42.654;23.370;2023-12-22T04:19:55;93014.91;;;5.60;67.48
36932;BME280;22847;42.654;23.370;2023-12-22T04:22:20;92988.56;;;5.48;67.65
36932;BME280;22847;42.654;23.370;2023-12-22T04:24:46;92867.94;;;4.73;68.01
36932;BME280;22847;42.654;23.370;2023-12-22T04:27:11;92873.66;;;4.84;67.78
36932;BME280;22847;42.654;23.370;2023-12-22T04:29:37;93019.81;;;5.71;67.92
36932;BME280;22847;42.654;23.370;2023-12-22T04:32:02;93008.97;;;5.67;68.02
36932;BME280;22847;42.654;23.370;2023-12-22T04:34:29;92854.16;;;4.90;67.76
36932;BME280;22847;42.654;23.370;2023-12-22T04:36:54;93012.59;;;5.82;67.92
36932;BME280;22847;42.654;23.370;2023-12-22T04:39:19;93008.75;;;5.87;68.38
36932;BME280;22847;42.654;23.370;2023-12-22T04:41:45;92951.59;;;5.56;67.66
36932;BME280;22847;42.654;23.370;2023-12-22T04:44:10;92980.03;;;5.64;67.41
36932;BME280;22847;42.654;23.370;2023-12-22T04:46:36;92998.41;;;5.87;67.40
36932;BME280;22847;42.654;23.370;2023-12-22T04:49:01;93010.47;;;5.78;67.63
36932;BME280;22847;42.654;23.370;2023-12-22T04:51:27;92871.81;;;5.11;67.72
36932;BME280;22847;42.654;23.370;2023-12-22T04:53:52;92969.88;;;5.62;68.03
36932;BME280;22847;42.654;23.370;2023-12-22T04:56:18;92962.06;;;5.54;68.14
36932;BME280;22847;42.654;23.370;2023-12-22T04:58:43;92965.16;;;5.58;67.60
36932;BME280;22847;42.654;23.370;2023-12-22T05:01:09;93004.31;;;5.71;68.06
36932;BME280;22847;42.654;23.370;2023-12-22T05:03:34;92969.50;;;5.49;68.37
36932;BME280;22847;42.654;23.370;2023-12-22T05:06:00;92988.78;;;5.63;67.87
36932;BME280;22847;42.654;23.370;2023-12-22T05:08:26;92957.22;;;5.51;68.68
36932;BME280;22847;42.654;23.370;2023-12-22T05:10:51;92823.53;;;4.61;68.93
36932;BME280;22847;42.654;23.370;2023-12-22T05:13:16;92972.00;;;5.67;68.94
36932;BME280;22847;42.654;23.370;2023-12-22T05:15:42;92979.41;;;5.70;68.19
36932;BME280;22847;42.654;23.370;2023-12-22T05:18:08;92964.34;;;5.57;69.02
36932;BME280;22847;42.654;23.370;2023-12-22T05:20:33;92958.84;;;5.52;68.84
36932;BME280;22847;42.654;23.370;2023-12-22T05:22:59;92968.28;;;5.77;68.55
36932;BME280;22847;42.654;23.370;2023-12-22T05:25:25;92970.88;;;5.85;68.65
36932;BME280;22847;42.654;23.370;2023-12-22T05:27:50;92896.91;;;5.26;68.31
36932;BME280;22847;42.654;23.370;2023-12-22T05:30:17;92985.41;;;5.70;68.69
36932;BME280;22847;42.654;23.370;2023-12-22T05:32:42;93011.63;;;5.83;68.46
36932;BME280;22847;42.654;23.370;2023-12-22T05:35:09;92950.16;;;5.61;68.35
36932;BME280;22847;42.654;23.370;2023-12-22T05:37:36;92979.34;;;5.88;68.73
36932;BME280;22847;42.654;23.370;2023-12-22T05:40:02;92972.81;;;5.75;68.38
36932;BME280;22847;42.654;23.370;2023-12-22T05:42:27;92988.00;;;5.78;68.74
36932;BME280;22847;42.654;23.370;2023-12-22T05:44:53;92848.66;;;4.93;69.18
36932;BME280;22847;42.654;23.370;2023-12-22T05:47:18;92959.81;;;5.59;69.00
36932;BME280;22847;42.654;23.370;2023-12-22T05:49:44;92987.03;;;5.71;69.41
36932;BME280;22847;42.654;23.370;2023-12-22T05:52:09;92891.63;;;5.02;69.86
36932;BME280;22847;42.654;23.370;2023-12-22T05:54:35;92971.78;;;5.60;70.24
36932;BME280;22847;42.654;23.370;2023-12-22T05:57:02;92980.56;;;5.75;70.35
36932;BME280;22847;42.654;23.370;2023-12-22T05:59:30;92792.38;;;4.29;71.51
36932;BME280;22847;42.654;23.370;2023-12-22T06:02:00;92984.78;;;5.34;72.00
36932;BME280;22847;42.654;23.370;2023-12-22T06:04:26;92968.34;;;5.10;73.10
36932;BME280;22847;42.654;23.370;2023-12-22T06:06:52;92909.75;;;4.76;73.43
36932;BME280;22847;42.654;23.370;2023-12-22T06:09:17;92847.66;;;4.52;73.17
36932;BME280;22847;42.654;23.370;2023-12-22T06:11:45;92956.13;;;5.20;73.00
36932;BME280;22847;42.654;23.370;2023-12-22T06:14:11;92992.06;;;5.39;73.05
36932;BME280;22847;42.654;23.370;2023-12-22T06:16:36;93000.56;;;5.31;73.12
36932;BME280;22847;42.654;23.370;2023-12-22T06:19:02;92844.44;;;4.50;73.33
36932;BME280;22847;42.654;23.370;2023-12-22T06:21:28;92889.13;;;4.84;72.98
36932;BME280;22847;42.654;23.370;2023-12-22T06:23:54;92879.50;;;4.94;72.78
36932;BME280;22847;42.654;23.370;2023-12-22T06:26:19;92986.19;;;5.63;72.97
36932;BME280;22847;42.654;23.370;2023-12-22T06:28:45;92862.66;;;4.82;73.06
36932;BME280;22847;42.654;23.370;2023-12-22T06:31:20;92988.59;;;5.56;72.95
36932;BME280;22847;42.654;23.370;2023-12-22T06:33:47;92991.41;;;5.79;72.94
36932;BME280;22847;42.654;23.370;2023-12-22T06:36:20;93004.34;;;5.79;73.18
36932;BME280;22847;42.654;23.370;2023-12-22T06:38:47;92963.44;;;5.74;72.51
36932;BME280;22847;42.654;23.370;2023-12-22T06:41:26;93006.72;;;6.06;72.20
36932;BME280;22847;42.654;23.370;2023-12-22T06:43:52;92991.47;;;5.87;72.73
36932;BME280;22847;42.654;23.370;2023-12-22T06:46:24;93006.56;;;5.66;73.59
36932;BME280;22847;42.654;23.370;2023-12-22T06:48:54;93012.06;;;5.71;73.92
36932;BME280;22847;42.654;23.370;2023-12-22T06:51:20;92999.63;;;5.74;74.04
36932;BME280;22847;42.654;23.370;2023-12-22T06:53:47;92990.72;;;5.69;73.98
36932;BME280;22847;42.654;23.370;2023-12-22T06:56:29;93005.56;;;6.01;73.07
36932;BME280;22847;42.654;23.370;2023-12-22T06:58:56;93005.06;;;5.89;73.29
36932;BME280;22847;42.654;23.370;2023-12-22T07:01:29;93013.66;;;5.98;73.10
36932;BME280;22847;42.654;23.370;2023-12-22T07:03:55;92902.19;;;5.17;73.59
36932;BME280;22847;42.654;23.370;2023-12-22T07:06:21;93017.31;;;5.87;73.85
36932;BME280;22847;42.654;23.370;2023-12-22T07:11:43;92942.28;;;4.95;75.82
36932;BME280;22847;42.654;23.370;2023-12-22T07:14:09;93017.25;;;5.37;76.63
36932;BME280;22847;42.654;23.370;2023-12-22T07:16:35;93034.16;;;5.57;76.35
36932;BME280;22847;42.654;23.370;2023-12-22T07:19:02;92961.31;;;5.28;75.99
36932;BME280;22847;42.654;23.370;2023-12-22T07:21:27;93000.25;;;5.68;75.22
36932;BME280;22847;42.654;23.370;2023-12-22T07:23:53;92873.19;;;4.89;75.23
36932;BME280;22847;42.654;23.370;2023-12-22T07:26:18;93015.97;;;5.75;75.49
36932;BME280;22847;42.654;23.370;2023-12-22T07:28:44;92890.94;;;4.92;75.81
36932;BME280;22847;42.654;23.370;2023-12-22T07:31:09;92889.28;;;4.83;75.84
36932;BME280;22847;42.654;23.370;2023-12-22T07:33:34;93038.28;;;5.76;76.17
36932;BME280;22847;42.654;23.370;2023-12-22T07:36:00;93003.63;;;5.61;76.48
36932;BME280;22847;42.654;23.370;2023-12-22T07:38:26;92994.72;;;5.63;76.90
36932;BME280;22847;42.654;23.370;2023-12-22T07:40:52;93025.91;;;5.96;76.43
36932;BME280;22847;42.654;23.370;2023-12-22T07:43:17;93063.91;;;5.95;76.11
36932;BME280;22847;42.654;23.370;2023-12-22T07:45:43;93021.94;;;5.75;76.98
36932;BME280;22847;42.654;23.370;2023-12-22T07:48:08;93035.50;;;5.77;77.33
36932;BME280;22847;42.654;23.370;2023-12-22T07:50:34;93043.94;;;5.79;77.07
36932;BME280;22847;42.654;23.370;2023-12-22T07:52:59;93051.69;;;5.79;76.99
36932;BME280;22847;42.654;23.370;2023-12-22T07:55:25;93012.84;;;5.63;77.67
36932;BME280;22847;42.654;23.370;2023-12-22T07:57:51;93042.31;;;5.78;77.51
36932;BME280;22847;42.654;23.370;2023-12-22T08:00:17;93012.66;;;5.57;77.43
36932;BME280;22847;42.654;23.370;2023-12-22T08:02:43;93047.88;;;5.92;77.12
36932;BME280;22847;42.654;23.370;2023-12-22T08:05:09;93027.97;;;5.84;77.49
36932;BME280;22847;42.654;23.370;2023-12-22T08:07:35;92941.84;;;5.42;77.17
36932;BME280;22847;42.654;23.370;2023-12-22T08:10:01;93031.63;;;6.07;77.37
36932;BME280;22847;42.654;23.370;2023-12-22T08:12:27;93036.81;;;6.15;77.54
36932;BME280;22847;42.654;23.370;2023-12-22T08:14:53;93043.13;;;6.21;77.38
36932;BME280;22847;42.654;23.370;2023-12-22T08:17:19;93051.06;;;6.36;76.96
36932;BME280;22847;42.654;23.370;2023-12-22T08:19:44;93077.97;;;6.51;77.14
36932;BME280;22847;42.654;23.370;2023-12-22T08:22:10;93089.28;;;6.58;76.91
36932;BME280;22847;42.654;23.370;2023-12-22T08:24:38;93049.34;;;6.52;76.58
36932;BME280;22847;42.654;23.370;2023-12-22T08:27:05;93044.78;;;6.30;77.84
36932;BME280;22847;42.654;23.370;2023-12-22T08:29:32;93090.91;;;6.59;77.96
36932;BME280;22847;42.654;23.370;2023-12-22T08:31:57;93030.00;;;6.22;77.91
36932;BME280;22847;42.654;23.370;2023-12-22T08:34:23;93066.31;;;6.63;77.97
36932;BME280;22847;42.654;23.370;2023-12-22T08:36:49;93088.84;;;6.79;77.56
36932;BME280;22847;42.654;23.370;2023-12-22T08:39:14;93088.19;;;6.85;77.66
36932;BME280;22847;42.654;23.370;2023-12-22T08:41:40;92931.66;;;5.90;77.19
36932;BME280;22847;42.654;23.370;2023-12-22T08:44:06;93086.41;;;6.77;78.54
36932;BME280;22847;42.654;23.370;2023-12-22T08:46:32;93113.06;;;6.45;80.34
36932;BME280;22847;42.654;23.370;2023-12-22T08:48:58;93036.69;;;6.33;79.84
36932;BME280;22847;42.654;23.370;2023-12-22T08:51:27;93021.00;;;6.35;79.46
36932;BME280;22847;42.654;23.370;2023-12-22T08:53:55;93082.53;;;6.81;78.95
36932;BME280;22847;42.654;23.370;2023-12-22T08:56:22;93085.13;;;6.89;79.00
36932;BME280;22847;42.654;23.370;2023-12-22T08:58:47;92979.22;;;6.21;79.36
36932;BME280;22847;42.654;23.370;2023-12-22T09:01:15;93087.56;;;6.83;79.68
36932;BME280;22847;42.654;23.370;2023-12-22T09:03:41;92946.72;;;6.03;79.55
36932;BME280;22847;42.654;23.370;2023-12-22T09:06:13;93070.72;;;6.87;79.60
36932;BME280;22847;42.654;23.370;2023-12-22T09:08:39;93080.09;;;6.96;79.49
36932;BME280;22847;42.654;23.370;2023-12-22T09:11:04;93081.56;;;6.98;79.76
36932;BME280;22847;42.654;23.370;2023-12-22T09:13:29;93034.47;;;6.70;79.34
36932;BME280;22847;42.654;23.370;2023-12-22T09:15:57;92933.13;;;6.17;79.00
36932;BME280;22847;42.654;23.370;2023-12-22T09:18:22;93051.28;;;6.75;79.78
36932;BME280;22847;42.654;23.370;2023-12-22T09:20:48;93120.63;;;7.29;79.31
36932;BME280;22847;42.654;23.370;2023-12-22T09:23:14;92978.78;;;6.42;79.16
36932;BME280;22847;42.654;23.370;2023-12-22T09:25:39;93110.41;;;7.20;79.30
36932;BME280;22847;42.654;23.370;2023-12-22T09:28:05;93134.84;;;7.25;79.25
36932;BME280;22847;42.654;23.370;2023-12-22T09:30:31;93114.13;;;7.33;79.08
36932;BME280;22847;42.654;23.370;2023-12-22T09:32:57;93064.75;;;7.02;78.69
36932;BME280;22847;42.654;23.370;2023-12-22T09:35:23;93110.22;;;7.37;79.16
36932;BME280;22847;42.654;23.370;2023-12-22T09:37:50;93111.19;;;7.44;79.07
36932;BME280;22847;42.654;23.370;2023-12-22T09:40:16;92971.66;;;6.60;78.82
36932;BME280;22847;42.654;23.370;2023-12-22T09:42:42;93079.94;;;7.22;78.86
36932;BME280;22847;42.654;23.370;2023-12-22T09:45:11;93117.19;;;7.37;79.54
36932;BME280;22847;42.654;23.370;2023-12-22T09:47:40;93070.38;;;7.30;79.10
36932;BME280;22847;42.654;23.370;2023-12-22T09:50:07;93088.34;;;7.40;79.41
36932;BME280;22847;42.654;23.370;2023-12-22T09:52:35;93093.03;;;7.44;79.69
36932;BME280;22847;42.654;23.370;2023-12-22T09:55:01;93084.94;;;7.31;79.48
36932;BME280;22847;42.654;23.370;2023-12-22T09:57:30;93085.31;;;7.20;80.21
36932;BME280;22847;42.654;23.370;2023-12-22T09:59:57;93025.06;;;6.86;80.61
36932;BME280;22847;42.654;23.370;2023-12-22T10:02:25;93074.72;;;7.30;80.01
36932;BME280;22847;42.654;23.370;2023-12-22T10:04:52;92936.41;;;6.43;79.73
36932;BME280;22847;42.654;23.370;2023-12-22T10:07:18;93073.13;;;7.29;80.29
36932;BME280;22847;42.654;23.370;2023-12-22T10:09:47;93072.00;;;7.31;80.91
36932;BME280;22847;42.654;23.370;2023-12-22T10:12:14;93069.88;;;7.35;80.64
36932;BME280;22847;42.654;23.370;2023-12-22T10:14:41;93031.84;;;7.19;80.60
36932;BME280;22847;42.654;23.370;2023-12-22T10:17:07;92937.19;;;6.68;80.60
36932;BME280;22847;42.654;23.370;2023-12-22T10:19:32;93069.03;;;7.50;80.82
36932;BME280;22847;42.654;23.370;2023-12-22T10:21:58;93037.63;;;7.45;80.79
36932;BME280;22847;42.654;23.370;2023-12-22T10:24:40;93058.81;;;7.57;80.59
36932;BME280;22847;42.654;23.370;2023-12-22T10:27:07;93038.06;;;7.57;80.74
36932;BME280;22847;42.654;23.370;2023-12-22T10:29:34;92913.34;;;6.81;80.35
36932;BME280;22847;42.654;23.370;2023-12-22T10:32:04;93046.31;;;7.69;80.07
36932;BME280;22847;42.654;23.370;2023-12-22T10:34:33;93015.25;;;7.44;81.24
36932;BME280;22847;42.654;23.370;2023-12-22T10:36:59;93022.69;;;7.55;82.13
36932;BME280;22847;42.654;23.370;2023-12-22T10:39:31;93032.38;;;7.70;82.51
36932;BME280;22847;42.654;23.370;2023-12-22T10:42:00;93043.66;;;7.85;82.87
36932;BME280;22847;42.654;23.370;2023-12-22T10:44:29;93031.50;;;7.85;82.71
36932;BME280;22847;42.654;23.370;2023-12-22T10:46:55;92889.09;;;7.29;81.72
36932;BME280;22847;42.654;23.370;2023-12-22T10:49:22;92901.31;;;7.51;81.56
36932;BME280;22847;42.654;23.370;2023-12-22T10:51:48;92897.16;;;7.73;82.00
36932;BME280;22847;42.654;23.370;2023-12-22T10:54:14;92875.94;;;7.69;81.90
36932;BME280;22847;42.654;23.370;2023-12-22T10:56:40;92989.13;;;8.55;81.51
36932;BME280;22847;42.654;23.370;2023-12-22T10:59:06;92983.63;;;8.72;81.57
36932;BME280;22847;42.654;23.370;2023-12-22T11:01:32;92877.56;;;8.38;81.23
36932;BME280;22847;42.654;23.370;2023-12-22T11:04:03;92986.63;;;9.36;79.85
36932;BME280;22847;42.654;23.370;2023-12-22T11:06:34;92966.25;;;9.54;78.74
36932;BME280;22847;42.654;23.370;2023-12-22T11:09:03;92942.09;;;9.46;77.61
36932;BME280;22847;42.654;23.370;2023-12-22T11:11:33;92970.19;;;9.65;77.07
36932;BME280;22847;42.654;23.370;2023-12-22T11:14:00;92840.75;;;8.87;76.19
36932;BME280;22847;42.654;23.370;2023-12-22T11:16:28;92937.53;;;9.48;77.25
36932;BME280;22847;42.654;23.370;2023-12-22T11:18:54;92936.91;;;9.75;77.86
36932;BME280;22847;42.654;23.370;2023-12-22T11:21:24;92840.28;;;9.27;78.87
36932;BME280;22847;42.654;23.370;2023-12-22T11:23:50;92937.19;;;10.01;77.18
36932;BME280;22847;42.654;23.370;2023-12-22T11:26:20;92939.00;;;10.01;77.55
36932;BME280;22847;42.654;23.370;2023-12-22T11:28:47;92954.31;;;10.10;78.05
36932;BME280;22847;42.654;23.370;2023-12-22T11:31:13;92807.97;;;9.36;77.62
36932;BME280;22847;42.654;23.370;2023-12-22T11:33:50;92962.00;;;10.33;76.46
36932;BME280;22847;42.654;23.370;2023-12-22T11:36:16;92946.06;;;10.21;75.81
36932;BME280;22847;42.654;23.370;2023-12-22T11:38:43;92951.34;;;10.13;76.45
36932;BME280;22847;42.654;23.370;2023-12-22T11:41:12;92938.09;;;10.08;76.12
36932;BME280;22847;42.654;23.370;2023-12-22T11:43:40;92959.16;;;10.13;77.13
36932;BME280;22847;42.654;23.370;2023-12-22T11:46:06;92967.88;;;10.20;77.62
36932;BME280;22847;42.654;23.370;2023-12-22T11:48:32;92969.06;;;10.18;76.67
36932;BME280;22847;42.654;23.370;2023-12-22T11:50:58;92957.91;;;10.09;75.88
36932;BME280;22847;42.654;23.370;2023-12-22T11:53:24;93021.94;;;10.54;74.57
36932;BME280;22847;42.654;23.370;2023-12-22T11:56:00;92884.53;;;9.99;73.87
36932;BME280;22847;42.654;23.370;2023-12-22T11:58:35;92954.81;;;10.56;71.38
36932;BME280;22847;42.654;23.370;2023-12-22T12:01:02;92931.81;;;10.39;69.42
36932;BME280;22847;42.654;23.370;2023-12-22T12:03:31;92852.78;;;9.38;69.19
36932;BME280;22847;42.654;23.370;2023-12-22T12:08:47;92835.78;;;9.21;67.88
36932;BME280;22847;42.654;23.370;2023-12-22T12:11:14;92951.00;;;9.66;67.54
36932;BME280;22847;42.654;23.370;2023-12-22T12:13:44;92861.97;;;8.76;68.16
36932;BME280;22847;42.654;23.370;2023-12-22T12:16:14;92976.41;;;9.49;68.22
36932;BME280;22847;42.654;23.370;2023-12-22T12:18:41;93003.56;;;9.47;68.34
36932;BME280;22847;42.654;23.370;2023-12-22T12:21:08;92975.50;;;9.27;68.34
36932;BME280;22847;42.654;23.370;2023-12-22T12:23:35;92968.44;;;8.99;67.50
36932;BME280;22847;42.654;23.370;2023-12-22T12:26:00;92838.19;;;8.27;67.20
36932;BME280;22847;42.654;23.370;2023-12-22T12:28:28;92812.13;;;8.20;67.31
36932;BME280;22847;42.654;23.370;2023-12-22T12:31:02;92970.19;;;8.83;67.36
36932;BME280;22847;42.654;23.370;2023-12-22T12:33:29;92824.59;;;8.02;67.66
36932;BME280;22847;42.654;23.370;2023-12-22T12:36:00;92964.25;;;8.75;67.59
36932;BME280;22847;42.654;23.370;2023-12-22T12:38:55;92943.16;;;8.92;66.32
36932;BME280;22847;42.654;23.370;2023-12-22T12:41:31;92947.63;;;8.84;66.10
36932;BME280;22847;42.654;23.370;2023-12-22T12:43:58;92944.59;;;8.95;65.91
36932;BME280;22847;42.654;23.370;2023-12-22T12:46:23;92942.34;;;8.92;65.41
36932;BME280;22847;42.654;23.370;2023-12-22T12:49:04;92902.56;;;8.77;65.46
36932;BME280;22847;42.654;23.370;2023-12-22T12:51:31;92844.72;;;8.45;65.14
36932;BME280;22847;42.654;23.370;2023-12-22T12:54:00;92920.41;;;8.94;64.86
36932;BME280;22847;42.654;23.370;2023-12-22T12:56:26;92922.16;;;8.79;65.80
36932;BME280;22847;42.654;23.370;2023-12-22T12:58:52;92949.53;;;8.90;66.30
36932;BME280;22847;42.654;23.370;2023-12-22T13:01:17;92968.66;;;9.12;65.61
36932;BME280;22847;42.654;23.370;2023-12-22T13:03:54;92964.88;;;9.00;64.12
36932;BME280;22847;42.654;23.370;2023-12-22T13:06:19;92973.03;;;9.11;62.97